Time;durP1;ratioP1;P1;durP2;ratioP2;P2;SDS_P1;SDS_P2;PMS_P1;PMS_P2;Temp;Humidity;BMP_temperature;BMP_pressure;BME280_temperature;BME280_humidity;BME280_pressure;Samples;Min_cycle;Max_cycle;Signal;HPM_P1;HPM_P2
2021/06/14 00:01:15;;;;;;;9.20;4.97;;;21.40;34.40;;;;;;5092651;28;20740;-76
2021/06/14 00:03:41;;;;;;;10.03;4.43;;;21.40;34.40;;;;;;5092566;28;20202;-75
2021/06/14 00:06:07;;;;;;;9.80;5.50;;;21.40;34.40;;;;;;5092317;28;20182;-76
2021/06/14 00:08:32;;;;;;;8.53;5.63;;;21.40;34.50;;;;;;5092561;28;20417;-76
2021/06/14 00:10:59;;;;;;;8.67;5.27;;;21.40;34.50;;;;;;5091120;28;20255;-76
2021/06/14 00:13:26;;;;;;;11.10;4.80;;;21.40;34.50;;;;;;5092392;28;20191;-75
2021/06/14 00:15:52;;;;;;;10.40;5.60;;;21.40;34.60;;;;;;5091969;28;20408;-76
2021/06/14 00:18:19;;;;;;;12.50;5.37;;;21.40;34.50;;;;;;5091093;28;20413;-76
2021/06/14 00:20:56;;;;;;;10.87;5.37;;;21.40;34.60;;;;;;5092301;28;20417;-76
2021/06/14 00:23:24;;;;;;;11.37;6.03;;;21.40;34.60;;;;;;5092306;28;20432;-76
2021/06/14 00:25:50;;;;;;;12.30;5.00;;;21.40;34.60;;;;;;5092055;28;20430;-76
2021/06/14 00:28:17;;;;;;;13.50;5.30;;;21.40;34.60;;;;;;5092221;28;20435;-76
2021/06/14 00:30:45;;;;;;;9.50;6.00;;;21.40;34.60;;;;;;5090951;28;20833;-75
2021/06/14 00:33:13;;;;;;;10.93;6.10;;;21.40;34.70;;;;;;5092018;28;20435;-76
2021/06/14 00:35:39;;;;;;;7.80;5.40;;;21.40;34.80;;;;;;5090589;28;20459;-76
2021/06/14 00:38:05;;;;;;;8.37;6.30;;;21.40;34.80;;;;;;5092124;28;20440;-76
2021/06/14 00:40:31;;;;;;;10.00;5.50;;;21.40;34.90;;;;;;5091800;28;20408;-76
2021/06/14 00:42:57;;;;;;;10.63;6.40;;;21.40;34.80;;;;;;5091977;28;20436;-75
2021/06/14 00:45:27;;;;;;;8.77;5.13;;;21.40;34.90;;;;;;5091699;28;20412;-76
2021/06/14 00:47:52;;;;;;;12.57;6.43;;;21.40;34.90;;;;;;5092043;28;20655;-76
2021/06/14 00:50:22;;;;;;;10.47;6.60;;;21.40;34.90;;;;;;5091864;28;20412;-76
2021/06/14 00:52:48;;;;;;;8.97;6.00;;;21.40;34.90;;;;;;5091889;28;20266;-76
2021/06/14 00:55:17;;;;;;;9.83;6.27;;;21.40;35.70;;;;;;5091519;28;20895;-76
2021/06/14 00:57:42;;;;;;;9.23;5.97;;;21.40;34.90;;;;;;5091986;28;20417;-76
2021/06/14 01:00:08;;;;;;;7.70;6.07;;;21.30;34.80;;;;;;5091703;28;20888;-76
2021/06/14 01:02:34;;;;;;;8.53;5.97;;;21.40;35.00;;;;;;5093084;28;20261;-76
2021/06/14 01:04:59;;;;;;;11.23;6.03;;;21.30;34.90;;;;;;5095682;28;20864;-76
2021/06/14 01:07:26;;;;;;;7.90;5.60;;;21.40;34.90;;;;;;5095881;28;20175;-76
2021/06/14 01:09:52;;;;;;;9.00;5.90;;;21.40;34.90;;;;;;5095770;28;20182;-75
2021/06/14 01:12:23;;;;;;;9.67;5.17;;;21.30;34.90;;;;;;5095716;28;20463;-75
2021/06/14 01:15:06;;;;;;;9.73;5.43;;;21.40;34.90;;;;;;5095550;28;20493;-76
2021/06/14 01:17:45;;;;;;;9.53;5.53;;;21.40;34.90;;;;;;5094470;28;20494;-76
2021/06/14 01:20:41;;;;;;;8.07;5.00;;;21.30;34.80;;;;;;5095599;28;20462;-76
2021/06/14 01:23:35;;;;;;;10.53;5.30;;;21.40;34.90;;;;;;5095512;28;20429;-75
2021/06/14 01:26:16;;;;;;;9.50;5.60;;;21.30;34.90;;;;;;5095379;28;20935;-76
2021/06/14 01:28:42;;;;;;;8.30;5.27;;;21.40;34.90;;;;;;5094217;28;20419;-76
2021/06/14 01:31:08;;;;;;;10.07;5.87;;;21.30;34.80;;;;;;5095300;28;20452;-76
2021/06/14 01:33:35;;;;;;;7.80;5.40;;;21.30;34.80;;;;;;5095304;28;20437;-76
2021/06/14 01:36:19;;;;;;;10.67;4.97;;;21.30;34.80;;;;;;5095233;28;20404;-76
2021/06/14 01:38:47;;;;;;;10.23;6.00;;;21.30;34.80;;;;;;5095398;28;20567;-76
2021/06/14 01:41:13;;;;;;;8.80;6.00;;;21.30;34.80;;;;;;5095000;28;20803;-76
2021/06/14 01:43:41;;;;;;;9.20;4.90;;;21.30;34.80;;;;;;5095275;28;20428;-76
2021/06/14 01:46:12;;;;;;;7.47;4.90;;;21.40;34.80;;;;;;5094900;28;20416;-76
2021/06/14 01:48:40;;;;;;;8.00;4.87;;;21.30;34.70;;;;;;5095256;28;20416;-76
2021/06/14 01:51:08;;;;;;;11.13;6.73;;;21.30;34.70;;;;;;5094924;28;20524;-76
2021/06/14 01:53:35;;;;;;;5.90;4.77;;;21.30;34.70;;;;;;5095042;28;20443;-76
2021/06/14 01:56:01;;;;;;;6.80;5.17;;;21.40;34.80;;;;;;5094797;28;20925;-76
2021/06/14 01:58:30;;;;;;;6.83;4.70;;;21.30;34.60;;;;;;5094794;28;20405;-76
2021/06/14 02:00:56;;;;;;;7.10;4.83;;;21.30;34.70;;;;;;5093619;28;20832;-76
2021/06/14 02:03:23;;;;;;;6.00;4.87;;;21.30;34.70;;;;;;5093582;28;20846;-75
2021/06/14 02:05:49;;;;;;;6.93;5.47;;;21.30;34.70;;;;;;5094796;28;20416;-75
2021/06/14 02:08:17;;;;;;;6.43;4.57;;;21.30;34.70;;;;;;5095677;28;20951;-75
2021/06/14 02:10:44;;;;;;;7.63;4.43;;;21.30;34.60;;;;;;5094940;28;20448;-76
2021/06/14 02:13:12;;;;;;;5.47;4.90;;;21.30;34.60;;;;;;5094795;28;20446;-76
2021/06/14 02:15:37;;;;;;;5.63;4.63;;;21.30;34.70;;;;;;5093100;28;20427;-76
2021/06/14 02:18:05;;;;;;;6.80;4.77;;;21.30;34.60;;;;;;5094645;28;20786;-76
2021/06/14 02:20:31;;;;;;;5.20;4.10;;;21.30;34.60;;;;;;5093252;28;20713;-76
2021/06/14 02:22:56;;;;;;;6.20;4.77;;;21.30;34.60;;;;;;5094511;28;20433;-75
2021/06/14 02:25:22;;;;;;;7.47;4.70;;;21.30;34.60;;;;;;5094235;28;20174;-76
2021/06/14 02:27:47;;;;;;;5.53;4.97;;;21.30;34.60;;;;;;5094274;28;20236;-76
2021/06/14 02:30:22;;;;;;;7.27;4.40;;;21.30;34.70;;;;;;5094235;28;20614;-76
2021/06/14 02:32:49;;;;;;;6.77;4.93;;;21.30;34.60;;;;;;5094399;28;20171;-76
2021/06/14 02:35:15;;;;;;;11.40;4.87;;;21.30;34.60;;;;;;5093950;28;20777;-75
2021/06/14 02:37:47;;;;;;;7.47;4.90;;;21.30;34.70;;;;;;5094125;28;20415;-75
2021/06/14 02:40:13;;;;;;;6.20;4.63;;;21.30;34.60;;;;;;5094033;28;20405;-76
2021/06/14 02:42:39;;;;;;;5.93;4.00;;;21.30;34.60;;;;;;5093768;28;20428;-76
2021/06/14 02:45:06;;;;;;;7.70;4.67;;;21.30;34.70;;;;;;5092493;28;20421;-76
2021/06/14 02:47:34;;;;;;;6.30;4.17;;;21.30;34.70;;;;;;5093958;28;20954;-76
2021/06/14 02:50:01;;;;;;;5.17;4.53;;;21.30;34.60;;;;;;5092582;28;20419;-75
2021/06/14 02:52:27;;;;;;;4.40;4.00;;;21.30;34.70;;;;;;5093806;28;20830;-76
2021/06/14 02:54:58;;;;;;;6.10;4.60;;;21.30;34.70;;;;;;5093705;28;20519;-76
2021/06/14 02:57:27;;;;;;;4.87;4.37;;;21.30;34.70;;;;;;5093604;28;20411;-75
2021/06/14 02:59:54;;;;;;;6.77;4.57;;;21.30;34.70;;;;;;5093694;28;20409;-76
2021/06/14 03:02:22;;;;;;;4.60;4.20;;;21.30;34.60;;;;;;5093683;28;20419;-75
2021/06/14 03:04:47;;;;;;;5.20;4.60;;;21.30;34.70;;;;;;5093529;28;20476;-76
2021/06/14 03:07:13;;;;;;;5.20;3.63;;;21.30;34.70;;;;;;5093345;28;20447;-75
2021/06/14 03:09:40;;;;;;;5.97;4.60;;;21.30;34.70;;;;;;5093490;28;20585;-75
2021/06/14 03:12:06;;;;;;;6.00;4.40;;;21.30;34.70;;;;;;5092146;28;20905;-75
2021/06/14 03:14:34;;;;;;;4.50;4.10;;;21.30;34.70;;;;;;5093512;28;20764;-74
2021/06/14 03:17:01;;;;;;;4.57;4.17;;;21.30;34.70;;;;;;5093266;28;20916;-75
2021/06/14 03:19:28;;;;;;;4.50;4.10;;;21.30;34.70;;;;;;5093385;28;20441;-75
2021/06/14 03:21:53;;;;;;;4.63;4.10;;;21.30;34.70;;;;;;5093263;28;20427;-75
2021/06/14 03:24:19;;;;;;;5.53;4.70;;;21.20;34.60;;;;;;5092948;28;20810;-76
2021/06/14 03:26:46;;;;;;;4.80;4.23;;;21.20;34.70;;;;;;5092357;28;20179;-75
2021/06/14 03:29:20;;;;;;;6.07;4.10;;;21.20;34.60;;;;;;5093234;28;20183;-75
2021/06/14 03:31:50;;;;;;;8.07;4.17;;;21.20;34.60;;;;;;5093030;28;20531;-75
2021/06/14 03:34:18;;;;;;;4.10;3.80;;;21.20;34.70;;;;;;5092985;28;20501;-76
2021/06/14 03:36:45;;;;;;;5.93;4.10;;;21.30;34.80;;;;;;5092726;28;20456;-75
2021/06/14 03:39:13;;;;;;;4.57;4.17;;;21.20;34.70;;;;;;5092884;28;20854;-75
2021/06/14 03:41:49;;;;;;;4.07;3.77;;;21.30;34.70;;;;;;5092749;28;20515;-75
2021/06/14 03:44:20;;;;;;;4.43;4.07;;;21.20;34.70;;;;;;5084692;28;20451;-77
2021/06/14 03:46:46;;;;;;;5.00;4.50;;;21.20;34.80;;;;;;5086226;28;20515;-76
2021/06/14 03:49:12;;;;;;;5.00;4.60;;;21.20;34.80;;;;;;5092635;28;20421;-76
2021/06/14 03:51:38;;;;;;;5.80;4.30;;;21.30;34.80;;;;;;5092693;28;20832;-76
2021/06/14 03:54:04;;;;;;;7.93;5.03;;;21.30;34.80;;;;;;5092633;28;20207;-76
2021/06/14 03:56:32;;;;;;;6.83;4.73;;;21.30;34.80;;;;;;5092357;28;20491;-76
2021/06/14 03:58:59;;;;;;;4.53;4.13;;;21.30;34.80;;;;;;5092595;28;20439;-76
2021/06/14 04:01:26;;;;;;;4.83;4.00;;;21.30;34.80;;;;;;5092593;28;20416;-76
2021/06/14 04:06:24;;;;;;;4.30;3.90;;;21.30;35.00;;;;;;5092472;28;20508;-76
2021/06/14 04:08:50;;;;;;;4.97;4.47;;;21.30;35.20;;;;;;5092637;28;20528;-76
2021/06/14 04:11:16;;;;;;;5.87;4.87;;;21.30;35.00;;;;;;5092448;28;20194;-75
2021/06/14 04:13:41;;;;;;;8.73;4.87;;;21.30;35.30;;;;;;5092327;28;20519;-76
2021/06/14 04:16:07;;;;;;;5.90;4.23;;;21.30;35.80;;;;;;5091078;28;20171;-76
2021/06/14 04:18:33;;;;;;;3.70;3.40;;;21.30;35.40;;;;;;5087172;28;20632;-77
2021/06/14 04:20:58;;;;;;;5.07;4.67;;;21.40;35.40;;;;;;5092320;28;20265;-77
2021/06/14 04:23:24;;;;;;;5.40;4.83;;;21.30;35.30;;;;;;5092100;28;20202;-77
2021/06/14 04:25:49;;;;;;;5.43;4.93;;;21.30;35.30;;;;;;5092034;28;20186;-76
2021/06/14 04:28:15;;;;;;;4.40;4.00;;;21.30;35.40;;;;;;5092259;28;20615;-76
2021/06/14 04:30:41;;;;;;;7.60;4.60;;;21.30;35.40;;;;;;5090617;28;20202;-75
2021/06/14 04:33:06;;;;;;;5.80;4.40;;;21.30;35.20;;;;;;5092192;28;20657;-76
2021/06/14 04:35:32;;;;;;;6.23;4.10;;;21.30;35.30;;;;;;5091947;28;20174;-76
2021/06/14 04:37:57;;;;;;;5.47;4.50;;;21.30;35.20;;;;;;5091971;28;20178;-76
2021/06/14 04:40:23;;;;;;;8.10;4.87;;;21.30;35.20;;;;;;5091799;28;20729;-75
2021/06/14 04:42:49;;;;;;;5.10;4.60;;;21.30;35.20;;;;;;5091983;28;20288;-76
2021/06/14 04:45:14;;;;;;;5.33;4.70;;;21.30;35.20;;;;;;5091554;28;20249;-75
2021/06/14 04:47:40;;;;;;;5.60;4.37;;;21.30;35.20;;;;;;5092019;28;20201;-75
2021/06/14 04:50:07;;;;;;;5.00;4.60;;;21.30;35.20;;;;;;5091984;28;20182;-76
2021/06/14 04:52:33;;;;;;;4.67;4.13;;;21.30;35.30;;;;;;5091583;28;20210;-76
2021/06/14 04:54:58;;;;;;;6.57;4.87;;;21.30;35.30;;;;;;5092010;28;20409;-75
2021/06/14 04:57:24;;;;;;;4.43;4.03;;;21.30;35.30;;;;;;5092662;28;20178;-77
2021/06/14 04:59:51;;;;;;;4.53;4.13;;;21.30;35.20;;;;;;5091952;28;20715;-76
2021/06/14 05:02:17;;;;;;;10.43;4.30;;;21.30;35.30;;;;;;5091873;28;20416;-75
2021/06/14 05:04:42;;;;;;;5.20;4.17;;;21.30;35.30;;;;;;5091701;28;20432;-76
2021/06/14 05:07:08;;;;;;;6.47;4.33;;;21.30;35.30;;;;;;5091472;28;20187;-76
2021/06/14 05:09:34;;;;;;;4.77;4.27;;;21.30;35.30;;;;;;5091769;28;20299;-75
2021/06/14 05:11:59;;;;;;;5.80;4.70;;;21.30;35.30;;;;;;5091841;28;20205;-76
2021/06/14 05:14:25;;;;;;;5.87;4.17;;;21.30;35.20;;;;;;5091346;28;20190;-75
2021/06/14 05:16:50;;;;;;;4.50;3.97;;;21.30;35.20;;;;;;5091516;28;20240;-76
2021/06/14 05:19:16;;;;;;;6.33;5.00;;;21.30;35.30;;;;;;5091895;28;20669;-75
2021/06/14 05:21:41;;;;;;;4.00;3.70;;;21.30;35.20;;;;;;5091383;28;20228;-76
2021/06/14 05:24:07;;;;;;;5.43;4.93;;;21.30;35.20;;;;;;5091835;28;20197;-77
2021/06/14 05:26:33;;;;;;;4.60;4.20;;;21.30;35.20;;;;;;5091719;28;20262;-76
2021/06/14 05:28:58;;;;;;;7.30;4.67;;;21.30;35.20;;;;;;5091898;28;20244;-75
2021/06/14 05:31:24;;;;;;;4.57;4.17;;;21.30;35.20;;;;;;5091932;28;20206;-75
2021/06/14 05:33:49;;;;;;;4.40;4.07;;;21.30;35.20;;;;;;5092727;28;20198;-75
2021/06/14 05:36:15;;;;;;;4.83;4.10;;;21.20;35.10;;;;;;5091126;28;20171;-76
2021/06/14 05:38:40;;;;;;;4.40;4.00;;;21.30;35.20;;;;;;5092026;28;20174;-75
2021/06/14 05:41:06;;;;;;;4.40;4.00;;;21.30;35.20;;;;;;5092689;28;20564;-76
2021/06/14 05:43:32;;;;;;;4.50;4.10;;;21.20;35.10;;;;;;5090163;28;20281;-75
2021/06/14 05:45:57;;;;;;;5.33;4.60;;;21.30;35.30;;;;;;5090810;28;20182;-75
2021/06/14 05:48:23;;;;;;;3.80;3.60;;;21.30;35.20;;;;;;5090968;28;20181;-76
2021/06/14 05:50:49;;;;;;;7.00;4.47;;;21.30;35.20;;;;;;5092020;28;20206;-76
2021/06/14 05:53:15;;;;;;;4.60;4.17;;;21.30;35.20;;;;;;5093433;28;20203;-76
2021/06/14 05:55:40;;;;;;;5.07;4.30;;;21.40;35.20;;;;;;5089160;28;20424;-76
2021/06/14 05:58:06;;;;;;;4.60;3.77;;;21.30;35.20;;;;;;5091949;28;20197;-76
2021/06/14 06:00:32;;;;;;;4.80;3.83;;;21.30;35.20;;;;;;5093797;28;20269;-77
2021/06/14 06:02:57;;;;;;;4.87;4.37;;;21.30;35.10;;;;;;5094935;28;20198;-76
2021/06/14 06:05:23;;;;;;;4.73;4.33;;;21.30;35.20;;;;;;5094817;28;20683;-77
2021/06/14 06:07:49;;;;;;;4.20;3.80;;;21.30;35.10;;;;;;5095026;28;20510;-77
2021/06/14 06:10:15;;;;;;;5.40;4.40;;;21.30;35.00;;;;;;5095160;28;20175;-77
2021/06/14 06:12:41;;;;;;;5.10;4.43;;;21.30;34.90;;;;;;5093977;28;20456;-77
2021/06/14 06:15:09;;;;;;;5.07;4.50;;;21.30;34.80;;;;;;5094940;28;20175;-78
2021/06/14 06:17:35;;;;;;;5.30;4.90;;;21.30;34.70;;;;;;5096505;28;20470;-78
2021/06/14 06:20:00;;;;;;;4.93;4.53;;;21.30;34.60;;;;;;5097682;28;20923;-77
2021/06/14 06:22:26;;;;;;;4.80;4.50;;;21.40;34.70;;;;;;5096258;28;20559;-77
2021/06/14 06:24:52;;;;;;;5.60;4.27;;;21.30;34.70;;;;;;5096384;28;20269;-76
2021/06/14 06:27:18;;;;;;;4.80;4.50;;;21.30;34.70;;;;;;5096214;28;20171;-77
2021/06/14 06:29:43;;;;;;;4.90;4.40;;;21.30;34.70;;;;;;5095849;28;20481;-77
2021/06/14 06:32:09;;;;;;;6.73;4.47;;;21.30;34.60;;;;;;5095406;28;20221;-77
2021/06/14 06:34:35;;;;;;;4.57;4.27;;;21.30;34.50;;;;;;5095618;28;20668;-77
2021/06/14 06:37:00;;;;;;;5.00;4.60;;;21.40;34.60;;;;;;5094045;28;20181;-77
2021/06/14 06:39:26;;;;;;;4.37;4.00;;;21.30;34.50;;;;;;5095044;28;20163;-77
2021/06/14 06:41:51;;;;;;;5.23;4.60;;;21.40;34.50;;;;;;5095161;28;20186;-77
2021/06/14 06:44:17;;;;;;;9.23;4.60;;;21.40;34.50;;;;;;5094204;28;20194;-77
2021/06/14 06:46:42;;;;;;;4.50;4.20;;;21.40;34.50;;;;;;5096297;28;20175;-78
2021/06/14 06:49:08;;;;;;;4.33;4.03;;;21.40;34.40;;;;;;5096939;28;20196;-77
2021/06/14 06:51:34;;;;;;;4.53;4.13;;;21.30;34.40;;;;;;5096824;28;20190;-76
2021/06/14 06:54:12;;;;;;;4.33;4.03;;;21.40;34.50;;;;;;5096708;28;20195;-77
2021/06/14 06:56:49;;;;;;;4.90;4.47;;;21.40;34.50;;;;;;5097025;28;20538;-76
2021/06/14 06:59:15;;;;;;;5.47;4.30;;;21.40;34.40;;;;;;5094549;28;20407;-77
2021/06/14 07:01:41;;;;;;;6.53;4.77;;;21.40;34.40;;;;;;5094951;28;20820;-77
2021/06/14 07:04:07;;;;;;;5.60;4.10;;;21.40;34.40;;;;;;5095233;28;20466;-78
2021/06/14 07:06:33;;;;;;;4.60;4.27;;;21.40;34.40;;;;;;5095404;28;20175;-77
2021/06/14 07:08:59;;;;;;;6.10;4.77;;;21.40;34.50;;;;;;5095634;28;20937;-77
2021/06/14 07:11:27;;;;;;;4.93;4.20;;;21.40;34.40;;;;;;5094494;28;20460;-77
2021/06/14 07:13:54;;;;;;;5.40;4.33;;;21.40;34.50;;;;;;5094274;28;20915;-78
2021/06/14 07:16:20;;;;;;;9.20;4.70;;;21.40;34.50;;;;;;5094632;28;20426;-78
2021/06/14 07:18:46;;;;;;;5.17;4.60;;;21.40;34.50;;;;;;5095575;28;20455;-78
2021/06/14 07:21:12;;;;;;;5.10;4.60;;;21.40;34.50;;;;;;5093056;28;20420;-76
2021/06/14 07:23:38;;;;;;;5.93;4.23;;;21.40;34.50;;;;;;5094250;28;20429;-78
2021/06/14 07:26:04;;;;;;;7.63;5.47;;;21.40;34.50;;;;;;5095466;28;20167;-77
2021/06/14 07:28:29;;;;;;;4.80;4.50;;;21.40;35.10;;;;;;5093981;28;20424;-77
2021/06/14 07:30:55;;;;;;;14.50;4.57;;;21.40;34.40;;;;;;5094217;28;20222;-78
2021/06/14 07:33:20;;;;;;;5.50;5.00;;;21.40;34.50;;;;;;5094518;28;20187;-76
2021/06/14 07:35:46;;;;;;;5.07;4.70;;;21.40;34.40;;;;;;5093305;28;20169;-77
2021/06/14 07:38:12;;;;;;;4.77;4.37;;;21.40;34.40;;;;;;5093385;28;20205;-77
2021/06/14 07:40:38;;;;;;;5.40;4.90;;;21.40;34.40;;;;;;5093037;28;20186;-77
2021/06/14 07:43:04;;;;;;;4.70;4.40;;;21.50;34.50;;;;;;5093866;28;20432;-77
2021/06/14 07:45:30;;;;;;;5.57;4.63;;;21.40;34.40;;;;;;5093216;28;20575;-78
2021/06/14 07:47:56;;;;;;;5.70;5.03;;;21.50;34.50;;;;;;5095362;28;20408;-77
2021/06/14 07:50:22;;;;;;;5.20;4.80;;;21.40;34.40;;;;;;5089116;28;20413;-76
2021/06/14 07:52:47;;;;;;;4.87;4.43;;;21.40;34.50;;;;;;5093156;28;20171;-77
2021/06/14 07:55:13;;;;;;;4.57;4.27;;;21.50;34.60;;;;;;5093176;28;20204;-78
2021/06/14 07:57:39;;;;;;;4.90;4.50;;;21.40;34.50;;;;;;5094785;28;20644;-78
2021/06/14 08:00:08;;;;;;;5.83;4.80;;;21.50;34.60;;;;;;5092396;28;20174;-77
2021/06/14 08:02:39;;;;;;;4.73;4.43;;;21.40;34.50;;;;;;5089349;28;20432;-76
2021/06/14 08:05:06;;;;;;;4.87;4.50;;;21.40;34.50;;;;;;5093135;28;20416;-77
2021/06/14 08:07:32;;;;;;;5.37;4.90;;;21.40;34.40;;;;;;5093731;28;20408;-77
2021/06/14 08:10:03;;;;;;;5.03;4.63;;;21.50;34.60;;;;;;5093580;28;20462;-76
2021/06/14 08:12:31;;;;;;;5.03;4.70;;;21.50;34.50;;;;;;5092448;28;20484;-77
2021/06/14 08:14:56;;;;;;;5.17;4.77;;;21.50;34.50;;;;;;5092532;28;20471;-76
2021/06/14 08:17:22;;;;;;;4.90;4.50;;;21.50;34.50;;;;;;5092492;28;20436;-77
2021/06/14 08:19:54;;;;;;;5.07;4.60;;;21.50;34.50;;;;;;5091837;28;20495;-77
2021/06/14 08:25:20;;;;;;;6.20;4.83;;;21.50;34.60;;;;;;5090317;28;20972;-77
2021/06/14 08:27:49;;;;;;;6.47;5.20;;;21.50;34.50;;;;;;5093163;28;20424;-77
2021/06/14 08:30:18;;;;;;;5.60;5.10;;;21.50;34.50;;;;;;5093068;28;20250;-77
2021/06/14 08:32:44;;;;;;;4.77;4.37;;;21.50;34.50;;;;;;5092730;28;20456;-77
2021/06/14 08:35:13;;;;;;;5.70;5.17;;;21.50;34.50;;;;;;5091422;28;20903;-76
2021/06/14 08:37:46;;;;;;;4.80;4.50;;;21.50;34.50;;;;;;5092392;28;20412;-76
2021/06/14 08:40:13;;;;;;;5.40;5.07;;;21.50;34.50;;;;;;5092082;28;20441;-77
2021/06/14 08:42:39;;;;;;;4.67;4.27;;;21.50;34.50;;;;;;5092424;28;20428;-76
2021/06/14 08:45:06;;;;;;;5.27;4.87;;;21.50;34.50;;;;;;5091996;28;20519;-76
2021/06/14 08:47:35;;;;;;;4.93;4.63;;;21.60;34.50;;;;;;5092464;28;20428;-76
2021/06/14 08:50:01;;;;;;;5.37;4.83;;;21.60;34.50;;;;;;5092316;28;20505;-77
2021/06/14 08:52:27;;;;;;;4.90;4.50;;;21.60;34.50;;;;;;5087982;28;20467;-77
2021/06/14 08:54:53;;;;;;;8.13;4.17;;;21.60;34.50;;;;;;5089808;28;20623;-77
2021/06/14 08:57:19;;;;;;;4.80;4.50;;;21.50;34.50;;;;;;5089316;28;20417;-79
2021/06/14 08:59:45;;;;;;;4.87;4.47;;;21.50;34.50;;;;;;5089762;28;20262;-78
2021/06/14 09:02:12;;;;;;;4.33;4.03;;;21.60;34.50;;;;;;5091427;28;20729;-78
2021/06/14 09:04:38;;;;;;;4.50;4.20;;;21.60;34.50;;;;;;5090624;28;20942;-76
2021/06/14 09:07:04;;;;;;;4.20;3.90;;;21.60;34.60;;;;;;5090569;28;20491;-76
2021/06/14 09:09:31;;;;;;;4.33;4.00;;;21.60;34.70;;;;;;5090767;28;20408;-76
2021/06/14 09:11:59;;;;;;;8.00;4.50;;;21.60;34.80;;;;;;5090554;28;20544;-77
2021/06/14 09:14:40;;;;;;;6.90;4.83;;;21.60;34.90;;;;;;5089004;28;20974;-76
2021/06/14 09:17:15;;;;;;;8.77;5.10;;;21.60;34.80;;;;;;5090565;28;20448;-76
2021/06/14 09:19:52;;;;;;;6.30;4.10;;;21.60;34.70;;;;;;5090215;28;20404;-77
2021/06/14 09:22:25;;;;;;;6.53;4.07;;;21.60;34.60;;;;;;5090928;28;20423;-78
2021/06/14 09:25:14;;;;;;;4.80;4.40;;;21.60;34.70;;;;;;5094654;28;20493;-78
2021/06/14 09:27:45;;;;;;;5.13;4.30;;;21.60;34.50;;;;;;5094773;28;20404;-79
2021/06/14 09:30:24;;;;;;;4.60;4.30;;;21.60;34.40;;;;;;5094037;28;20941;-78
2021/06/14 09:33:06;;;;;;;4.40;4.10;;;21.60;34.30;;;;;;5094677;28;20465;-77
2021/06/14 09:35:41;;;;;;;4.70;4.33;;;21.60;34.20;;;;;;5093640;28;20831;-79
2021/06/14 09:38:17;;;;;;;4.30;4.00;;;21.60;33.90;;;;;;5094667;28;20400;-77
2021/06/14 09:40:51;;;;;;;5.63;4.93;;;21.60;34.00;;;;;;5095804;28;20412;-79
2021/06/14 09:43:25;;;;;;;4.40;4.10;;;21.60;33.10;;;;;;5093031;28;20489;-78
2021/06/14 09:45:51;;;;;;;6.37;5.40;;;21.70;32.40;;;;;;5094934;28;20408;-79
2021/06/14 09:48:19;;;;;;;5.20;4.80;;;21.60;32.60;;;;;;5092915;28;20416;-78
2021/06/14 09:50:46;;;;;;;4.93;4.63;;;21.60;32.10;;;;;;5093994;28;20539;-78
2021/06/14 09:53:15;;;;;;;5.63;5.07;;;21.70;31.40;;;;;;5086760;28;20544;-77
2021/06/14 09:55:43;;;;;;;6.30;5.73;;;21.60;31.20;;;;;;5091157;28;21148;-77
2021/06/14 09:58:27;;;;;;;6.67;4.70;;;21.70;30.90;;;;;;5094260;28;20421;-77
2021/06/14 10:00:58;;;;;;;5.27;4.70;;;21.60;31.30;;;;;;5094051;28;20436;-77
2021/06/14 10:03:28;;;;;;;6.37;5.60;;;21.70;31.10;;;;;;5094916;28;20515;-76
2021/06/14 10:05:56;;;;;;;5.80;4.83;;;21.70;32.10;;;;;;5076959;28;20520;-78
2021/06/14 10:08:27;;;;;;;5.20;4.70;;;21.70;31.30;;;;;;5077499;28;20428;-78
2021/06/14 10:11:07;;;;;;;6.67;5.10;;;21.70;31.30;;;;;;5093075;28;20610;-77
2021/06/14 10:13:33;;;;;;;5.57;5.00;;;21.70;31.30;;;;;;5087291;28;20456;-77
2021/06/14 10:16:23;;;;;;;5.37;4.97;;;21.70;31.30;;;;;;5093445;28;20438;-78
2021/06/14 10:18:58;;;;;;;5.10;4.80;;;21.70;31.30;;;;;;5090256;28;20459;-77
2021/06/14 10:21:31;;;;;;;5.13;4.83;;;21.70;31.40;;;;;;5091239;28;20425;-76
2021/06/14 10:24:07;;;;;;;6.67;5.03;;;21.70;31.30;;;;;;5087480;28;20524;-77
2021/06/14 10:26:35;;;;;;;5.43;4.97;;;21.70;31.30;;;;;;5092679;28;20935;-76
2021/06/14 10:29:02;;;;;;;4.80;4.40;;;21.70;31.30;;;;;;5090943;28;21402;-76
2021/06/14 10:31:28;;;;;;;4.57;4.27;;;21.70;31.40;;;;;;5080434;28;20519;-77
2021/06/14 10:33:55;;;;;;;5.20;4.80;;;21.70;31.30;;;;;;5090902;28;20500;-77
2021/06/14 10:36:24;;;;;;;5.60;5.03;;;21.80;31.50;;;;;;5092633;28;20413;-77
2021/06/14 10:38:52;;;;;;;5.63;4.93;;;21.70;31.30;;;;;;5092958;28;20470;-77
2021/06/14 10:41:22;;;;;;;5.13;4.63;;;21.80;31.50;;;;;;5088256;28;20445;-77
2021/06/14 10:43:49;;;;;;;5.67;5.27;;;21.80;31.50;;;;;;5093252;28;20428;-77
2021/06/14 10:46:19;;;;;;;5.17;4.63;;;21.70;31.40;;;;;;5094630;28;20405;-77
2021/06/14 10:48:46;;;;;;;5.70;5.20;;;21.80;31.50;;;;;;5095380;28;20401;-77
2021/06/14 10:51:17;;;;;;;5.00;4.60;;;21.80;31.40;;;;;;5093522;28;20962;-77
2021/06/14 10:53:50;;;;;;;4.73;4.40;;;21.70;31.40;;;;;;5094945;28;20429;-77
2021/06/14 10:56:18;;;;;;;4.93;4.37;;;21.80;31.40;;;;;;5094412;28;20762;-77
2021/06/14 10:59:02;;;;;;;5.03;4.63;;;21.80;31.50;;;;;;5093470;28;21056;-74
2021/06/14 11:01:35;;;;;;;4.80;4.50;;;21.80;31.50;;;;;;5093759;28;20404;-75
2021/06/14 11:04:02;;;;;;;5.63;5.07;;;21.80;31.40;;;;;;5093748;28;20452;-75
2021/06/14 11:06:31;;;;;;;5.03;4.73;;;21.90;31.60;;;;;;5102571;28;20499;-75
2021/06/14 11:09:10;;;;;;;5.20;4.90;;;21.90;31.50;;;;;;5093626;28;20795;-76
2021/06/14 11:11:54;;;;;;;5.07;4.77;;;21.80;31.40;;;;;;5093512;28;20476;-76
2021/06/14 11:14:43;;;;;;;5.77;5.30;;;21.80;31.40;;;;;;5093904;28;21127;-76
2021/06/14 11:17:18;;;;;;;5.50;5.10;;;21.90;31.50;;;;;;5093431;28;20409;-76
2021/06/14 11:19:46;;;;;;;5.80;5.40;;;21.90;31.50;;;;;;5093681;28;20396;-76
2021/06/14 11:22:12;;;;;;;5.97;5.20;;;21.80;31.40;;;;;;5093307;28;20413;-76
2021/06/14 11:24:40;;;;;;;5.63;5.23;;;21.90;31.50;;;;;;5092359;28;20466;-76
2021/06/14 11:27:09;;;;;;;5.00;4.60;;;21.90;31.50;;;;;;5090223;28;20413;-76
2021/06/14 11:30:10;;;;;;;5.20;4.90;;;21.90;31.50;;;;;;5093520;28;20409;-76
2021/06/14 11:32:40;;;;;;;5.07;4.77;;;21.90;31.60;;;;;;5085844;28;20455;-76
2021/06/14 11:35:06;;;;;;;4.80;4.40;;;21.90;31.50;;;;;;5093103;28;20855;-76
2021/06/14 11:37:37;;;;;;;4.47;4.17;;;21.90;31.50;;;;;;5093094;28;20434;-76
2021/06/14 11:40:03;;;;;;;5.43;5.00;;;21.80;31.20;;;;;;5092512;28;20433;-75
2021/06/14 11:42:43;;;;;;;4.77;4.40;;;21.90;31.30;;;;;;5092855;28;20435;-75
2021/06/14 11:45:21;;;;;;;5.30;4.80;;;21.90;31.40;;;;;;5090215;28;20445;-77
2021/06/14 11:47:47;;;;;;;5.87;5.30;;;21.90;31.50;;;;;;5092677;28;20472;-76
2021/06/14 11:50:12;;;;;;;7.00;5.87;;;21.90;31.50;;;;;;5084978;28;20504;-76
2021/06/14 11:52:38;;;;;;;5.50;5.00;;;21.90;31.50;;;;;;5092698;28;20199;-77
2021/06/14 11:55:11;;;;;;;7.10;5.47;;;21.90;31.60;;;;;;5092614;28;20178;-76
2021/06/14 11:57:44;;;;;;;5.70;5.20;;;21.80;31.40;;;;;;5092852;28;20280;-76
2021/06/14 12:00:23;;;;;;;5.80;5.40;;;21.80;31.40;;;;;;5091614;28;20978;-76
2021/06/14 12:02:49;;;;;;;5.07;4.67;;;21.90;31.50;;;;;;5092754;28;20415;-76
2021/06/14 12:05:32;;;;;;;7.63;5.50;;;21.90;31.50;;;;;;5091636;28;20779;-82
2021/06/14 12:07:57;;;;;;;5.73;5.23;;;21.90;31.50;;;;;;5091635;28;20641;-76
2021/06/14 12:10:24;;;;;;;5.70;5.30;;;21.90;31.70;;;;;;5090681;28;20498;-75
2021/06/14 12:13:05;;;;;;;5.27;4.87;;;21.90;31.80;;;;;;5084650;28;20239;-76
2021/06/14 12:15:35;;;;;;;7.60;5.20;;;21.90;31.70;;;;;;5091621;28;20408;-76
2021/06/14 12:18:01;;;;;;;5.97;5.47;;;21.90;31.80;;;;;;5092590;28;20408;-75
2021/06/14 12:20:33;;;;;;;5.53;5.03;;;21.90;31.90;;;;;;5092577;28;20423;-76
2021/06/14 12:23:10;;;;;;;7.13;5.50;;;21.80;31.50;;;;;;5092594;28;20193;-81
2021/06/14 12:25:45;;;;;;;6.03;5.40;;;21.90;31.50;;;;;;5092310;28;20408;-75
2021/06/14 12:28:13;;;;;;;6.73;5.60;;;21.90;31.60;;;;;;5093039;28;20883;-75
2021/06/14 12:30:44;;;;;;;7.67;5.30;;;21.90;31.70;;;;;;5093525;28;20429;-76
2021/06/14 12:33:13;;;;;;;5.60;5.20;;;21.80;31.60;;;;;;5094654;28;20433;-77
2021/06/14 12:35:39;;;;;;;7.13;5.50;;;21.90;31.50;;;;;;5086521;28;20946;-76
2021/06/14 12:38:10;;;;;;;6.57;5.23;;;21.90;31.40;;;;;;5083809;28;20434;-77
2021/06/14 12:40:39;;;;;;;9.47;6.77;;;21.90;31.60;;;;;;5093498;28;20231;-76
2021/06/14 12:43:06;;;;;;;6.33;5.17;;;21.90;31.50;;;;;;5092427;28;20463;-77
2021/06/14 12:45:33;;;;;;;6.20;5.17;;;21.90;31.50;;;;;;5091725;28;20891;-76
2021/06/14 12:48:03;;;;;;;6.60;5.30;;;21.90;31.50;;;;;;5090156;28;20851;-75
2021/06/14 12:50:46;;;;;;;8.20;5.20;;;21.90;31.50;;;;;;5090163;28;21110;-76
2021/06/14 12:53:19;;;;;;;7.07;4.97;;;21.90;31.50;;;;;;5091476;28;20528;-76
2021/06/14 12:55:47;;;;;;;11.30;4.80;;;21.90;31.60;;;;;;5088446;28;20416;-76
2021/06/14 12:58:15;;;;;;;8.63;5.10;;;21.90;31.50;;;;;;5094152;28;20405;-75